Time;durP1;ratioP1;P1;durP2;ratioP2;P2;SDS_P1;SDS_P2;PMS_P1;PMS_P2;Temp;Humidity;BMP_temperature;BMP_pressure;BME280_temperature;BME280_humidity;BME280_pressure;Samples;Min_cycle;Max_cycle;Signal;HPM_P1;HPM_P2
2022/12/05 00:01:39;;;;;;;12.95;8.95;;;;;;;18.69;39.69;101636.63;5022053;28;20033;-70
2022/12/05 00:04:07;;;;;;;12.07;8.82;;;;;;;18.65;39.69;101632.53;5041381;28;20044;-70
2022/12/05 00:06:34;;;;;;;12.20;8.55;;;;;;;18.65;39.63;101645.75;5037220;28;20112;-70
2022/12/05 00:09:01;;;;;;;11.65;9.00;;;;;;;18.64;39.71;101652.81;5037693;28;20032;-74
2022/12/05 00:11:28;;;;;;;12.05;8.88;;;;;;;18.59;39.59;101641.72;5041348;28;20040;-70
2022/12/05 00:13:55;;;;;;;11.95;8.80;;;;;;;18.59;39.53;101646.16;5035312;28;20034;-71
2022/12/05 00:16:24;;;;;;;12.10;8.88;;;;;;;18.55;39.67;101635.00;5020746;28;20040;-71
2022/12/05 00:18:50;;;;;;;11.15;8.57;;;;;;;18.58;39.44;101641.84;5039390;28;20094;-71
2022/12/05 00:21:18;;;;;;;11.70;8.60;;;;;;;18.57;39.70;101648.09;5034418;28;20029;-71
2022/12/05 00:23:43;;;;;;;11.27;8.82;;;;;;;18.56;39.63;101643.75;5035082;28;20071;-71
2022/12/05 00:26:11;;;;;;;11.18;9.00;;;;;;;18.51;39.59;101651.97;5030595;28;20454;-69
2022/12/05 00:28:37;;;;;;;12.23;8.77;;;;;;;18.50;39.53;101642.41;5039166;28;20484;-73
2022/12/05 00:31:08;;;;;;;12.90;9.30;;;;;;;18.48;39.58;101645.16;5029547;28;20033;-70
2022/12/05 00:33:33;;;;;;;14.40;9.45;;;;;;;18.48;39.49;101633.72;5029437;28;20556;-70
2022/12/05 00:36:04;;;;;;;12.77;9.55;;;;;;;18.48;39.27;101631.06;5026032;28;20051;-70
2022/12/05 00:38:30;;;;;;;12.20;9.20;;;;;;;18.46;39.28;101631.19;5030617;28;20033;-70
2022/12/05 00:40:55;;;;;;;12.45;8.95;;;;;;;18.45;39.45;101632.16;5021336;28;20654;-72
2022/12/05 00:43:20;;;;;;;12.00;9.13;;;;;;;18.46;39.40;101633.00;5029497;28;20470;-69
2022/12/05 00:45:46;;;;;;;11.70;8.80;;;;;;;18.44;39.27;101633.09;5028606;28;20124;-71
2022/12/05 00:48:11;;;;;;;13.82;9.35;;;;;;;18.42;39.20;101626.22;5040987;28;20115;-71
2022/12/05 00:50:36;;;;;;;13.38;10.20;;;;;;;18.42;39.48;101628.88;5033027;28;20051;-70
2022/12/05 00:53:01;;;;;;;14.07;10.35;;;;;;;18.42;39.57;101635.00;5032975;28;20384;-72
2022/12/05 00:55:27;;;;;;;12.50;9.05;;;;;;;18.40;39.44;101628.13;5035501;28;20115;-70
2022/12/05 00:57:52;;;;;;;11.48;8.63;;;;;;;18.41;39.27;101635.94;5031911;28;20049;-69
2022/12/05 01:00:18;;;;;;;12.77;9.93;;;;;;;18.39;39.28;101629.94;5026042;28;20481;-69
2022/12/05 01:02:43;;;;;;;12.70;9.15;;;;;;;18.41;39.56;101630.69;5039186;28;20258;-69
2022/12/05 01:05:08;;;;;;;11.63;9.02;;;;;;;18.39;39.19;101634.34;5032540;28;20810;-72
2022/12/05 01:07:34;;;;;;;13.15;8.98;;;;;;;18.34;39.28;101626.78;5031434;28;20367;-71
2022/12/05 01:09:59;;;;;;;13.00;9.27;;;;;;;18.38;39.43;101635.34;5035569;28;20583;-69
2022/12/05 01:12:24;;;;;;;12.43;9.63;;;;;;;18.36;39.12;101632.78;5031552;28;20033;-69
2022/12/05 01:14:50;;;;;;;13.00;9.48;;;;;;;18.36;39.08;101639.84;5030811;28;20324;-72
2022/12/05 01:17:15;;;;;;;11.82;9.35;;;;;;;18.34;39.21;101641.75;5033314;28;20529;-70
2022/12/05 01:19:40;;;;;;;12.65;8.88;;;;;;;18.36;39.07;101655.69;5029046;28;20044;-69
2022/12/05 01:22:05;;;;;;;13.52;9.82;;;;;;;18.33;39.23;101640.09;5032252;28;20037;-72
2022/12/05 01:24:31;;;;;;;12.75;9.65;;;;;;;18.30;39.16;101647.25;5033271;28;20041;-71
2022/12/05 01:26:57;;;;;;;12.77;9.80;;;;;;;18.29;39.04;101645.56;5014753;28;20033;-70
2022/12/05 01:29:23;;;;;;;11.95;9.32;;;;;;;18.28;39.18;101648.31;5034777;28;20033;-72
2022/12/05 01:31:49;;;;;;;12.23;9.07;;;;;;;18.30;38.95;101654.34;5035501;28;20037;-72
2022/12/05 01:34:16;;;;;;;13.73;10.10;;;;;;;18.28;38.99;101651.78;5033453;28;20579;-70
2022/12/05 01:36:42;;;;;;;13.48;9.60;;;;;;;18.27;38.68;101650.09;5032146;28;20053;-71
2022/12/05 01:39:10;;;;;;;12.40;9.35;;;;;;;18.24;38.97;101652.09;5031396;28;20253;-70
2022/12/05 01:41:39;;;;;;;12.57;9.90;;;;;;;18.21;38.94;101650.53;5036612;28;20128;-70
2022/12/05 01:44:11;;;;;;;13.10;9.98;;;;;;;18.26;38.85;101660.75;5025446;28;20100;-70
2022/12/05 01:46:42;;;;;;;14.82;9.85;;;;;;;18.23;39.17;101663.59;5015112;28;20387;-69
2022/12/05 01:49:12;;;;;;;12.52;8.88;;;;;;;18.23;39.11;101663.59;5027888;28;20053;-73
2022/12/05 01:51:44;;;;;;;15.07;10.27;;;;;;;18.20;38.84;101656.75;5034495;28;20029;-70
2022/12/05 01:54:11;;;;;;;12.57;10.10;;;;;;;18.18;38.96;101657.81;5015738;28;20037;-72
2022/12/05 01:56:38;;;;;;;11.93;9.63;;;;;;;18.20;38.49;101669.94;5038523;28;20041;-72
2022/12/05 01:59:06;;;;;;;12.70;9.55;;;;;;;18.20;38.84;101671.72;5035565;28;20067;-71
2022/12/05 02:01:32;;;;;;;13.85;10.40;;;;;;;18.18;38.51;101671.84;5042281;28;20037;-70
2022/12/05 02:03:58;;;;;;;12.25;9.00;;;;;;;18.19;38.73;101680.63;5017245;28;20470;-72
2022/12/05 02:06:25;;;;;;;11.77;9.10;;;;;;;18.15;38.89;101672.06;5039413;28;20039;-72
2022/12/05 02:08:52;;;;;;;12.85;9.70;;;;;;;18.13;38.76;101669.53;5035926;28;20041;-70
2022/12/05 02:11:18;;;;;;;13.35;9.32;;;;;;;18.14;38.48;101678.28;5033048;28;20508;-71
2022/12/05 02:13:57;;;;;;;11.75;9.10;;;;;;;18.15;38.51;101677.34;5038111;28;20029;-70
2022/12/05 02:16:46;;;;;;;12.40;9.85;;;;;;;18.14;38.80;101675.66;5032250;28;20032;-69
2022/12/05 02:19:23;;;;;;;11.70;9.57;;;;;;;18.10;38.70;101668.88;5037373;28;20124;-70
2022/12/05 02:22:09;;;;;;;13.40;10.27;;;;;;;18.10;38.34;101671.50;5034445;28;20032;-74
2022/12/05 02:24:49;;;;;;;13.50;10.10;;;;;;;18.11;38.54;101676.69;5037242;28;20037;-68
2022/12/05 02:27:36;;;;;;;11.50;9.27;;;;;;;18.08;38.48;101668.97;5036732;28;20043;-69
2022/12/05 02:30:15;;;;;;;12.60;9.82;;;;;;;18.09;38.51;101665.41;5035371;28;20029;-70
2022/12/05 02:32:50;;;;;;;12.32;9.75;;;;;;;18.08;38.39;101665.50;5033645;28;20049;-70
2022/12/05 02:35:33;;;;;;;12.80;9.07;;;;;;;18.08;38.71;101666.34;5036521;28;20076;-69
2022/12/05 02:38:23;;;;;;;13.50;10.27;;;;;;;18.08;38.66;101666.34;5047109;28;20038;-71
2022/12/05 02:41:07;;;;;;;11.88;9.90;;;;;;;18.07;38.39;101667.31;5032166;28;20034;-69
2022/12/05 02:44:07;;;;;;;13.37;9.67;;;;;;;18.06;38.25;101665.63;5033496;28;20536;-71
2022/12/05 02:46:36;;;;;;;13.45;9.38;;;;;;;18.02;38.44;101658.00;5029839;28;20049;-69
2022/12/05 02:49:07;;;;;;;12.65;9.88;;;;;;;18.02;38.40;101660.66;5035266;28;20030;-69
2022/12/05 02:51:36;;;;;;;12.90;9.38;;;;;;;18.03;38.16;101657.91;5028934;28;20037;-73
2022/12/05 02:54:08;;;;;;;12.98;10.13;;;;;;;18.00;38.53;101666.03;5033854;28;20263;-73
2022/12/05 02:56:36;;;;;;;12.20;9.50;;;;;;;18.00;38.17;101660.75;5032216;28;20065;-70
2022/12/05 02:59:01;;;;;;;12.73;9.63;;;;;;;18.00;38.62;101666.03;5032990;28;20040;-70
2022/12/05 03:01:30;;;;;;;12.40;9.80;;;;;;;18.00;38.47;101670.47;5035141;28;20033;-69
2022/12/05 03:03:58;;;;;;;12.38;9.50;;;;;;;17.99;38.46;101668.75;5033342;28;20115;-69
2022/12/05 03:06:39;;;;;;;13.10;10.00;;;;;;;17.97;38.27;101671.50;5032210;28;21027;-71
2022/12/05 03:09:10;;;;;;;13.50;9.98;;;;;;;17.97;38.43;101674.16;5032936;28;20036;-71
2022/12/05 03:11:48;;;;;;;12.75;9.80;;;;;;;17.96;38.27;101667.19;5025465;28;20041;-68
2022/12/05 03:14:32;;;;;;;12.30;9.40;;;;;;;17.98;38.25;101667.94;5032197;28;20146;-69
2022/12/05 03:17:05;;;;;;;13.15;9.70;;;;;;;17.96;38.10;101667.19;5035952;28;20057;-70
2022/12/05 03:20:06;;;;;;;12.20;9.85;;;;;;;17.98;38.42;101669.72;5032674;28;20084;-70
2022/12/05 03:22:36;;;;;;;12.40;9.70;;;;;;;17.97;38.41;101668.88;5025175;28;20041;-69
2022/12/05 03:25:02;;;;;;;12.32;9.20;;;;;;;17.93;38.28;101668.25;5033455;28;20040;-72
2022/12/05 03:28:01;;;;;;;13.30;10.13;;;;;;;17.94;38.15;101661.16;5032736;28;20393;-69
2022/12/05 03:30:27;;;;;;;13.70;9.75;;;;;;;17.93;38.29;101664.78;5012272;28;20174;-69
2022/12/05 03:33:16;;;;;;;13.02;9.57;;;;;;;17.93;38.15;101662.13;5039545;28;20397;-70
2022/12/05 03:36:00;;;;;;;12.38;9.43;;;;;;;17.92;38.49;101657.78;5037053;28;20053;-69
2022/12/05 03:38:32;;;;;;;11.95;9.25;;;;;;;17.90;38.00;101664.97;5026147;28;20029;-73
2022/12/05 03:41:08;;;;;;;12.60;9.70;;;;;;;17.92;38.22;101670.97;5041127;28;20577;-69
2022/12/05 03:43:51;;;;;;;12.65;9.23;;;;;;;17.91;38.38;101664.88;5021940;28;20283;-71
2022/12/05 03:46:36;;;;;;;13.15;9.50;;;;;;;17.90;37.96;101657.06;5022088;28;20043;-69
2022/12/05 03:49:01;;;;;;;14.05;9.60;;;;;;;17.89;38.14;101660.63;5035491;28;20211;-69
2022/12/05 03:51:48;;;;;;;12.77;10.13;;;;;;;17.87;38.40;101658.06;5041864;28;20119;-70
2022/12/05 03:54:22;;;;;;;12.73;9.68;;;;;;;17.87;38.22;101660.72;5040389;28;20079;-68
2022/12/05 03:56:57;;;;;;;13.02;9.30;;;;;;;17.88;37.91;101666.84;5040610;28;20051;-70
2022/12/05 03:59:47;;;;;;;;;;;;;;;17.93;37.83;101665.59;5032570;28;20137;-70
2022/12/05 04:02:19;;;;;;;11.60;8.93;;;;;;;17.87;38.34;101663.34;5025450;28;19935;-71
2022/12/05 04:04:57;;;;;;;12.50;9.32;;;;;;;17.85;38.27;101665.25;5040984;28;20576;-75
2022/12/05 04:07:24;;;;;;;13.23;9.57;;;;;;;17.85;37.96;101667.88;5035953;28;20029;-70
2022/12/05 04:09:56;;;;;;;13.63;9.90;;;;;;;17.87;38.43;101673.88;5022229;28;20071;-73
2022/12/05 04:12:26;;;;;;;13.23;9.27;;;;;;;17.83;38.23;101669.78;5021999;28;20474;-71
2022/12/05 04:15:00;;;;;;;12.02;9.40;;;;;;;17.84;38.37;101666.19;5029520;28;20090;-69
2022/12/05 04:17:55;;;;;;;11.40;9.35;;;;;;;17.84;38.17;101671.47;5024096;28;20060;-70
2022/12/05 04:23:22;;;;;;;13.13;9.63;;;;;;;17.79;38.19;101668.28;5040239;28;20040;-71
2022/12/05 04:26:20;;;;;;;12.27;9.68;;;;;;;17.83;38.19;101680.34;5038666;28;20033;-72
2022/12/05 04:28:56;;;;;;;13.10;9.48;;;;;;;17.82;38.09;101675.16;5036514;28;20041;-72
2022/12/05 04:31:26;;;;;;;13.60;10.38;;;;;;;17.80;37.85;101671.75;5034886;28;20033;-69
2022/12/05 04:33:54;;;;;;;13.63;9.90;;;;;;;17.82;38.13;101688.34;5031931;28;20037;-71
2022/12/05 04:36:33;;;;;;;13.13;9.50;;;;;;;17.81;38.13;101682.22;5035904;28;20063;-70
2022/12/05 04:39:04;;;;;;;12.15;8.95;;;;;;;17.78;38.09;101679.78;5012598;28;20033;-72
2022/12/05 04:41:36;;;;;;;13.07;9.73;;;;;;;17.79;37.82;101680.63;5023839;28;20033;-69
2022/12/05 04:44:10;;;;;;;12.93;10.05;;;;;;;17.76;38.07;101687.78;5034612;28;20040;-68
2022/12/05 04:46:39;;;;;;;13.57;9.65;;;;;;;17.79;38.19;101680.63;5038889;28;20032;-70
2022/12/05 04:49:08;;;;;;;12.98;9.63;;;;;;;17.74;38.06;101687.03;5032748;28;20037;-70
2022/12/05 04:51:35;;;;;;;12.77;9.13;;;;;;;17.74;38.04;101683.56;5035291;28;20033;-69
2022/12/05 04:54:08;;;;;;;12.10;9.60;;;;;;;17.75;38.10;101678.19;5026696;28;20090;-70
2022/12/05 04:56:36;;;;;;;11.88;9.20;;;;;;;17.77;37.91;101676.31;5029412;28;20029;-70
2022/12/05 04:59:02;;;;;;;13.02;9.43;;;;;;;17.74;37.89;101673.88;5035487;28;20043;-69
2022/12/05 05:01:36;;;;;;;13.48;9.50;;;;;;;17.73;38.11;101680.06;5026905;28;20108;-70
2022/12/05 05:04:08;;;;;;;12.40;9.15;;;;;;;17.73;37.99;101682.72;5027948;28;20061;-70
2022/12/05 05:06:37;;;;;;;12.18;9.40;;;;;;;17.73;37.98;101682.72;5030765;28;20041;-73
2022/12/05 05:09:02;;;;;;;13.25;9.57;;;;;;;17.77;38.15;101688.66;5033617;28;20029;-72
2022/12/05 05:11:30;;;;;;;11.20;8.90;;;;;;;17.76;38.00;101692.22;5034689;28;20043;-71
2022/12/05 05:13:56;;;;;;;12.48;9.18;;;;;;;17.76;37.96;101690.41;5034112;28;20032;-70
2022/12/05 05:16:24;;;;;;;11.85;9.35;;;;;;;17.74;37.98;101688.84;5036730;28;20443;-70
2022/12/05 05:18:50;;;;;;;12.40;9.25;;;;;;;17.72;38.25;101696.00;5035173;28;20064;-73
2022/12/05 05:21:22;;;;;;;13.65;9.98;;;;;;;17.74;38.12;101696.75;5033623;28;20037;-71
2022/12/05 05:23:47;;;;;;;13.25;9.15;;;;;;;17.72;37.88;101707.41;5032026;28;20509;-71
2022/12/05 05:26:13;;;;;;;12.18;9.55;;;;;;;17.72;37.99;101702.13;5035787;28;20048;-70
2022/12/05 05:28:38;;;;;;;10.80;8.75;;;;;;;17.73;38.06;101703.81;5015748;28;20382;-70
2022/12/05 05:31:05;;;;;;;12.35;9.27;;;;;;;17.70;38.21;101696.09;5038916;28;20115;-70
2022/12/05 05:33:31;;;;;;;12.82;9.45;;;;;;;17.74;38.19;101702.88;5040087;28;20041;-69
2022/12/05 05:35:56;;;;;;;10.63;8.82;;;;;;;17.72;38.18;101696.84;5037543;28;20057;-72
2022/12/05 05:38:21;;;;;;;12.52;9.60;;;;;;;17.74;37.92;101696.75;5039375;28;20037;-69
2022/12/05 05:40:46;;;;;;;11.65;8.95;;;;;;;17.72;37.96;101701.25;5036317;28;20033;-69
2022/12/05 05:43:12;;;;;;;10.88;7.97;;;;;;;17.75;38.06;101701.94;5037453;28;20029;-70
2022/12/05 05:45:37;;;;;;;11.35;8.48;;;;;;;17.77;38.05;101700.03;5025824;28;20035;-69
2022/12/05 05:48:02;;;;;;;10.88;8.30;;;;;;;17.80;38.39;101700.75;5032319;28;20531;-71
2022/12/05 05:50:28;;;;;;;10.60;8.02;;;;;;;17.80;38.70;101693.72;5033035;28;20036;-68
2022/12/05 05:52:53;;;;;;;10.10;7.47;;;;;;;17.84;38.34;101704.91;5034473;28;20072;-68
2022/12/05 05:55:19;;;;;;;9.77;7.45;;;;;;;17.85;38.23;101704.78;5037215;28;20511;-71
2022/12/05 05:57:44;;;;;;;11.07;8.10;;;;;;;17.95;38.24;101708.53;5035451;28;20024;-71
2022/12/05 06:00:10;;;;;;;9.50;7.20;;;;;;;17.99;38.18;101703.91;5029834;28;20041;-69
2022/12/05 06:02:36;;;;;;;9.77;7.20;;;;;;;18.08;38.38;101711.19;5038547;28;20029;-68
2022/12/05 06:05:02;;;;;;;10.57;7.60;;;;;;;18.11;37.98;101713.63;5033665;28;20044;-71
2022/12/05 06:07:28;;;;;;;10.15;7.47;;;;;;;18.15;38.28;101714.28;5036926;28;20477;-71
2022/12/05 06:09:54;;;;;;;9.32;7.18;;;;;;;18.18;38.18;101708.78;5012491;28;20118;-71
2022/12/05 06:12:19;;;;;;;9.60;6.90;;;;;;;18.24;38.55;101712.78;5039933;28;20405;-70
2022/12/05 06:14:47;;;;;;;9.07;7.32;;;;;;;18.23;38.15;101711.97;5021288;28;20068;-70
2022/12/05 06:17:13;;;;;;;9.25;6.88;;;;;;;18.29;38.67;101721.25;5033465;28;20366;-71
2022/12/05 06:19:38;;;;;;;9.27;7.30;;;;;;;18.29;38.54;101710.69;5042067;28;20090;-69
2022/12/05 06:22:03;;;;;;;8.53;6.50;;;;;;;18.34;38.92;101718.28;5039544;28;20064;-70
2022/12/05 06:24:29;;;;;;;10.07;7.45;;;;;;;18.33;38.89;101711.34;5037867;28;20286;-70
2022/12/05 06:26:54;;;;;;;11.40;7.38;;;;;;;18.38;39.12;101723.25;5032054;28;20056;-72
2022/12/05 06:29:19;;;;;;;10.48;7.45;;;;;;;18.39;39.12;101717.03;5033111;28;20390;-71
2022/12/05 06:31:44;;;;;;;11.32;7.65;;;;;;;18.42;39.15;101723.88;5028714;28;20056;-70
2022/12/05 06:34:10;;;;;;;9.57;7.27;;;;;;;18.43;39.50;101717.66;5024932;28;20165;-70
2022/12/05 06:36:35;;;;;;;9.50;6.93;;;;;;;18.43;39.53;101715.03;5009131;28;20297;-71
2022/12/05 06:39:00;;;;;;;10.10;6.80;;;;;;;18.45;39.43;101723.66;5015466;28;20493;-71
2022/12/05 06:41:26;;;;;;;10.05;6.93;;;;;;;18.45;39.40;101721.03;5004332;28;20121;-71
2022/12/05 06:43:57;;;;;;;8.98;6.90;;;;;;;18.43;39.60;101723.78;5003942;28;20473;-72
2022/12/05 06:46:24;;;;;;;9.60;6.85;;;;;;;18.46;39.64;101723.56;5006682;28;20465;-71
2022/12/05 06:48:52;;;;;;;10.38;7.75;;;;;;;18.44;39.92;101717.56;5019440;28;20022;-72
2022/12/05 06:51:18;;;;;;;9.57;7.28;;;;;;;18.45;40.22;101723.66;5005573;28;20050;-71
2022/12/05 06:53:44;;;;;;;9.95;7.32;;;;;;;18.48;40.02;101720.81;5014779;28;20067;-72
2022/12/05 06:56:14;;;;;;;9.95;6.93;;;;;;;18.51;40.38;101722.41;5008979;28;20034;-71
2022/12/05 06:58:40;;;;;;;13.25;7.15;;;;;;;18.52;40.28;101722.31;5007719;28;20077;-72
2022/12/05 07:03:54;;;;;;;9.95;6.97;;;;;;;18.56;39.97;101729.06;5007306;28;20501;-72
2022/12/05 07:06:19;;;;;;;8.88;6.55;;;;;;;18.55;40.45;101731.78;5013948;28;20037;-71
2022/12/05 07:08:45;;;;;;;9.53;6.57;;;;;;;18.56;40.40;101731.69;5010250;28;20092;-70
2022/12/05 07:11:10;;;;;;;9.00;7.00;;;;;;;18.54;40.50;101738.03;5022010;28;20270;-71
2022/12/05 07:13:35;;;;;;;11.18;6.35;;;;;;;18.58;40.51;101743.00;4997563;28;20033;-70
2022/12/05 07:16:01;;;;;;;9.23;6.63;;;;;;;18.57;40.33;101741.31;5006137;28;20131;-69
2022/12/05 07:18:26;;;;;;;9.32;6.22;;;;;;;18.58;40.51;101748.28;5015701;28;20271;-69
2022/12/05 07:21:09;;;;;;;10.32;7.35;;;;;;;18.59;40.68;101757.03;5013500;28;20033;-72
2022/12/05 07:23:35;;;;;;;9.38;6.60;;;;;;;18.58;41.00;101753.56;5012191;28;20064;-70
2022/12/05 07:26:07;;;;;;;9.68;7.10;;;;;;;18.59;40.90;101755.25;5007057;28;20085;-72
2022/12/05 07:28:33;;;;;;;11.25;6.97;;;;;;;18.63;40.73;101764.66;5019767;28;20057;-70
2022/12/05 07:31:04;;;;;;;9.25;6.57;;;;;;;18.63;40.73;101769.94;5014119;28;20068;-69
2022/12/05 07:33:30;;;;;;;10.88;6.60;;;;;;;18.65;40.99;101773.31;5002845;28;20033;-74
2022/12/05 07:36:04;;;;;;;9.00;6.50;;;;;;;18.65;41.07;101769.81;5002787;28;20698;-75
2022/12/05 07:38:30;;;;;;;11.80;6.35;;;;;;;18.65;40.70;101769.81;5011068;28;20434;-72
2022/12/05 07:40:56;;;;;;;9.43;6.95;;;;;;;18.67;40.89;101776.69;5006697;28;20034;-71
2022/12/05 07:43:22;;;;;;;9.25;6.75;;;;;;;18.66;41.29;101769.72;5021467;28;20048;-72
2022/12/05 07:45:47;;;;;;;9.95;6.60;;;;;;;18.69;41.12;101768.66;5021591;28;20089;-71
2022/12/05 07:48:12;;;;;;;10.68;6.50;;;;;;;18.69;41.11;101763.38;5021540;28;20037;-71
2022/12/05 07:50:38;;;;;;;11.83;6.77;;;;;;;18.72;41.03;101770.25;5011733;28;20038;-69
2022/12/05 07:53:03;;;;;;;11.75;6.50;;;;;;;18.73;41.11;101772.78;5002177;28;20278;-71
2022/12/05 07:55:29;;;;;;;9.55;6.80;;;;;;;18.75;41.08;101777.94;5001804;28;20030;-71
2022/12/05 07:57:54;;;;;;;11.75;6.75;;;;;;;18.74;41.17;101777.13;5006236;28;20036;-71
2022/12/05 08:00:20;;;;;;;10.73;6.65;;;;;;;18.73;41.32;101778.06;5010829;28;20104;-74
2022/12/05 08:02:45;;;;;;;11.07;6.35;;;;;;;18.70;41.82;101777.44;4992489;28;20068;-70
2022/12/05 08:05:11;;;;;;;12.45;6.85;;;;;;;18.76;41.33;101784.94;5002339;28;20144;-72
2022/12/05 08:07:36;;;;;;;8.75;6.15;;;;;;;18.74;41.61;101778.91;5008791;28;20037;-72
2022/12/05 08:10:02;;;;;;;10.25;6.75;;;;;;;18.76;41.83;101783.13;5021074;28;20032;-72
2022/12/05 08:12:27;;;;;;;14.00;6.45;;;;;;;18.75;41.88;101786.72;4989661;28;20029;-70
2022/12/05 08:14:53;;;;;;;8.75;6.45;;;;;;;18.77;42.23;101790.13;5001733;28;20085;-71
2022/12/05 08:17:18;;;;;;;8.90;5.67;;;;;;;18.83;42.07;101796.75;5002028;28;20040;-71
2022/12/05 08:19:43;;;;;;;10.98;6.72;;;;;;;18.84;42.14;101795.84;5012692;28;20333;-70
2022/12/05 08:22:09;;;;;;;11.57;7.05;;;;;;;18.88;42.24;101804.38;5021414;28;20034;-72
2022/12/05 08:24:34;;;;;;;10.27;6.40;;;;;;;18.87;42.45;101803.56;5005994;28;20218;-70
2022/12/05 08:26:59;;;;;;;9.63;6.05;;;;;;;18.88;42.19;101801.75;5007059;28;20033;-71
2022/12/05 08:29:24;;;;;;;11.47;6.23;;;;;;;18.86;42.54;101807.13;5020774;28;20059;-69
2022/12/05 08:31:51;;;;;;;10.23;6.45;;;;;;;18.86;42.96;101804.50;5001223;28;20267;-69
2022/12/05 08:34:18;;;;;;;10.80;6.15;;;;;;;18.90;42.91;101815.69;5013803;28;20037;-69
2022/12/05 08:36:43;;;;;;;10.00;6.55;;;;;;;18.90;42.75;101813.03;5012400;28;20033;-71
2022/12/05 08:39:13;;;;;;;10.77;6.25;;;;;;;18.94;42.77;101817.19;5007127;28;20030;-71
2022/12/05 08:41:39;;;;;;;9.70;6.03;;;;;;;18.93;42.70;101824.25;5002814;28;20907;-69
2022/12/05 08:44:07;;;;;;;9.63;6.13;;;;;;;18.92;42.72;101819.91;5011845;28;20040;-70
2022/12/05 08:46:33;;;;;;;14.35;7.07;;;;;;;18.91;43.11;101810.28;5003004;28;20026;-69
2022/12/05 08:48:59;;;;;;;12.75;6.38;;;;;;;18.95;43.48;101808.31;4955000;28;20053;-72
2022/12/05 08:51:24;;;;;;;11.23;6.95;;;;;;;18.95;43.46;101814.44;4997418;28;20025;-72
2022/12/05 08:53:50;;;;;;;9.88;5.80;;;;;;;18.99;43.30;101815.06;5011528;28;20041;-70
2022/12/05 08:56:15;;;;;;;15.60;6.85;;;;;;;19.01;43.42;101815.81;5019331;28;20065;-73
2022/12/05 08:58:41;;;;;;;10.38;5.78;;;;;;;19.03;43.18;101825.31;5017524;28;20104;-72
2022/12/05 09:01:12;;;;;;;10.18;5.90;;;;;;;19.03;43.20;101829.75;5005698;28;20066;-72
2022/12/05 09:03:38;;;;;;;12.73;6.55;;;;;;;19.00;42.69;101822.88;5003052;28;20046;-68
2022/12/05 09:06:12;;;;;;;13.55;6.95;;;;;;;18.99;42.28;101828.25;5007147;28;20482;-72
2022/12/05 09:08:38;;;;;;;9.07;6.25;;;;;;;18.94;42.39;101825.09;5001316;28;20037;-71
2022/12/05 09:11:12;;;;;;;12.90;6.53;;;;;;;18.92;42.53;101830.50;5006946;28;20041;-71
2022/12/05 09:13:38;;;;;;;10.77;5.93;;;;;;;18.93;42.53;101834.84;5000371;28;20074;-70
2022/12/05 09:16:11;;;;;;;13.10;6.78;;;;;;;18.91;42.44;101835.88;4993163;28;20095;-70
2022/12/05 09:18:36;;;;;;;11.40;6.13;;;;;;;18.93;42.76;101837.47;4999563;28;20050;-69
2022/12/05 09:21:10;;;;;;;11.98;5.82;;;;;;;18.93;42.77;101834.84;4998153;28;20068;-74
2022/12/05 09:23:36;;;;;;;11.13;5.82;;;;;;;18.94;42.94;101840.94;4998722;28;20030;-72
2022/12/05 09:26:02;;;;;;;9.65;5.88;;;;;;;18.98;42.56;101837.16;5006159;28;20084;-73
2022/12/05 09:28:29;;;;;;;12.23;6.47;;;;;;;18.99;42.71;101842.34;5024350;28;20030;-71
2022/12/05 09:31:00;;;;;;;11.57;6.70;;;;;;;19.01;42.79;101851.00;5004283;28;20037;-71
2022/12/05 09:33:25;;;;;;;13.55;6.13;;;;;;;19.03;42.84;101845.59;5005394;28;20049;-71
2022/12/05 09:35:50;;;;;;;10.77;6.10;;;;;;;19.03;42.93;101849.06;5010977;28;20409;-71
2022/12/05 09:38:16;;;;;;;10.45;6.22;;;;;;;19.08;42.68;101856.69;5002210;28;20964;-69
2022/12/05 09:40:42;;;;;;;10.43;6.35;;;;;;;19.11;42.81;101858.28;5001448;28;20064;-68
2022/12/05 09:43:38;;;;;;;11.80;5.93;;;;;;;19.12;42.52;101863.47;5002944;28;20486;-72
2022/12/05 09:46:37;;;;;;;10.30;6.15;;;;;;;19.13;42.52;101859.00;5002799;28;20169;-69
2022/12/05 09:49:04;;;;;;;8.15;5.88;;;;;;;19.14;42.67;101863.34;5005603;28;20034;-72
2022/12/05 09:51:31;;;;;;;8.73;5.32;;;;;;;19.14;42.65;101866.00;5008638;28;20478;-71
2022/12/05 09:53:56;;;;;;;8.68;5.90;;;;;;;19.15;42.46;101871.19;4982966;28;20037;-74
2022/12/05 09:56:28;;;;;;;11.30;5.75;;;;;;;19.15;42.54;101865.03;5006149;28;20163;-75
2022/12/05 09:58:57;;;;;;;10.38;6.00;;;;;;;19.14;42.50;101861.56;5009627;28;20030;-74
2022/12/05 10:01:41;;;;;;;10.80;6.03;;;;;;;19.17;42.63;101865.78;5013891;28;20069;-71
2022/12/05 10:04:34;;;;;;;10.60;6.00;;;;;;;19.19;42.84;101862.06;5008950;28;20030;-71
2022/12/05 10:07:27;;;;;;;12.57;5.68;;;;;;;19.19;42.77;101864.72;5009531;28;20076;-69
2022/12/05 10:10:13;;;;;;;12.98;5.75;;;;;;;19.21;42.60;101870.72;5015295;28;20041;-71
2022/12/05 10:12:58;;;;;;;11.45;5.50;;;;;;;19.18;42.31;101864.81;5009565;28;20565;-69
2022/12/05 10:15:32;;;;;;;10.23;5.38;;;;;;;19.20;42.49;101860.25;5018303;28;20473;-71
2022/12/05 10:18:02;;;;;;;10.07;5.38;;;;;;;19.18;42.64;101867.47;5016429;28;20120;-71
2022/12/05 10:20:34;;;;;;;8.60;5.13;;;;;;;19.15;42.48;101860.59;5020327;28;20038;-70
2022/12/05 10:23:22;;;;;;;8.77;5.25;;;;;;;19.14;42.52;101861.56;5018685;28;20033;-70
2022/12/05 10:25:55;;;;;;;9.30;5.32;;;;;;;19.12;42.47;101862.59;5005125;28;20037;-70
2022/12/05 10:28:35;;;;;;;11.45;5.90;;;;;;;19.11;42.35;101855.63;5010821;28;20036;-71
2022/12/05 10:31:06;;;;;;;10.43;5.90;;;;;;;19.09;42.42;101868.09;5013477;28;20029;-70
2022/12/05 10:33:38;;;;;;;9.68;5.90;;;;;;;19.04;42.71;101860.47;4994961;28;20460;-69
2022/12/05 10:36:10;;;;;;;8.63;5.45;;;;;;;19.02;42.69;101863.22;5018095;28;20827;-70
2022/12/05 10:38:35;;;;;;;9.95;5.55;;;;;;;19.02;42.35;101857.09;5012752;28;20033;-70
2022/12/05 10:41:05;;;;;;;8.25;5.28;;;;;;;19.02;42.60;101870.31;5025553;28;20049;-70
2022/12/05 10:43:33;;;;;;;8.13;5.50;;;;;;;18.98;42.56;101864.41;5019877;28;20044;-71
2022/12/05 10:46:00;;;;;;;9.80;5.45;;;;;;;18.97;42.56;101862.72;5007899;28;20520;-77
2022/12/05 10:48:26;;;;;;;10.02;5.20;;;;;;;18.98;42.32;101858.28;5006258;28;20034;-71
2022/12/05 10:50:54;;;;;;;10.63;5.35;;;;;;;18.99;42.61;101862.59;5018495;28;20466;-68
2022/12/05 10:53:24;;;;;;;8.77;4.97;;;;;;;18.99;42.82;101870.53;4994673;28;20391;-69
2022/12/05 10:55:52;;;;;;;11.35;5.13;;;;;;;18.94;42.77;101862.91;5019556;28;20050;-72
2022/12/05 10:58:23;;;;;;;10.90;5.70;;;;;;;19.01;42.81;101871.28;5005848;28;20052;-69
2022/12/05 11:00:51;;;;;;;15.38;5.40;;;;;;;19.00;43.13;101862.50;5010715;28;20029;-68
2022/12/05 11:03:28;;;;;;;14.02;5.13;;;;;;;19.01;43.29;101861.56;5005805;28;20038;-71
2022/12/05 11:05:56;;;;;;;13.32;5.93;;;;;;;19.01;43.20;101872.13;5008250;28;20038;-72
2022/12/05 11:08:28;;;;;;;13.30;5.57;;;;;;;19.01;42.94;101856.28;5009889;28;20119;-73
2022/12/05 11:11:05;;;;;;;9.98;5.13;;;;;;;19.01;43.01;101858.09;5007425;28;20476;-75
2022/12/05 11:13:31;;;;;;;11.18;5.22;;;;;;;19.03;43.05;101858.81;5009896;28;20044;-69
2022/12/05 11:15:56;;;;;;;7.88;4.80;;;;;;;19.03;43.17;101854.38;5002661;28;20067;-68
2022/12/05 11:18:29;;;;;;;11.50;4.63;;;;;;;19.06;43.40;101855.09;4996084;28;20064;-72
2022/12/05 11:20:58;;;;;;;9.40;4.95;;;;;;;19.08;43.19;101855.84;5008431;28;20034;-67
2022/12/05 11:23:30;;;;;;;9.02;4.97;;;;;;;19.07;43.13;101849.69;5017020;28;20037;-69
2022/12/05 11:25:57;;;;;;;11.40;5.55;;;;;;;19.12;42.95;101854.66;5003998;28;20040;-70
2022/12/05 11:28:30;;;;;;;12.10;5.07;;;;;;;19.14;42.72;101856.25;5005185;28;20398;-72
2022/12/05 11:30:57;;;;;;;12.48;4.50;;;;;;;19.15;43.06;101852.69;5014498;28;20091;-71
2022/12/05 11:33:26;;;;;;;8.15;4.53;;;;;;;19.16;43.06;101856.16;5010200;28;20133;-70
2022/12/05 11:35:53;;;;;;;7.85;4.55;;;;;;;19.18;42.70;101857.75;5012653;28;20116;-70
2022/12/05 11:38:23;;;;;;;11.68;5.45;;;;;;;19.14;42.69;101853.63;5013679;28;20120;-68